createdAt,value
2019-04-20T00:00:51.079Z,9.43
2019-04-20T00:03:16.172Z,9.50
2019-04-20T00:05:43.440Z,9.50
2019-04-20T00:08:19.214Z,9.25
2019-04-20T00:10:47.555Z,9.85
2019-04-20T00:13:19.649Z,8.48
2019-04-20T00:15:38.918Z,7.70
2019-04-20T00:18:07.185Z,8.13
2019-04-20T00:20:38.502Z,9.35
2019-04-20T00:23:12.411Z,8.60
2019-04-20T00:26:07.684Z,10.15
2019-04-20T00:28:45.735Z,8.70
2019-04-20T00:31:16.359Z,8.85
2019-04-20T00:33:38.607Z,10.25
2019-04-20T00:35:52.898Z,8.78
2019-04-20T00:38:21.151Z,8.80
2019-04-20T00:40:57.667Z,7.70
2019-04-20T00:43:22.084Z,8.13
2019-04-20T00:45:54.292Z,9.20
2019-04-20T00:48:25.092Z,7.95
2019-04-20T00:51:01.105Z,10.38
2019-04-20T00:53:22.653Z,7.67
2019-04-20T00:55:42.491Z,7.72
2019-04-20T00:58:19.285Z,9.28
2019-04-20T01:01:04.231Z,8.85
2019-04-20T01:03:21.867Z,8.10
2019-04-20T01:06:08.241Z,7.50
2019-04-20T01:08:17.110Z,7.58
2019-04-20T01:10:50.136Z,6.28
2019-04-20T01:13:19.823Z,6.17
2019-04-20T01:15:54.164Z,6.58
2019-04-20T01:18:13.865Z,5.25
2019-04-20T01:20:43.024Z,6.25
2019-04-20T01:23:13.913Z,7.12
2019-04-20T01:25:42.251Z,7.70
2019-04-20T01:28:27.713Z,8.35
2019-04-20T01:30:43.190Z,9.05
2019-04-20T01:33:24.418Z,9.98
2019-04-20T01:35:54.111Z,10.43
2019-04-20T01:38:26.831Z,10.28
2019-04-20T01:40:36.310Z,8.33
2019-04-20T01:43:03.765Z,7.30
2019-04-20T01:45:35.707Z,7.55
2019-04-20T01:48:01.816Z,6.95
2019-04-20T01:50:33.276Z,7.00
2019-04-20T01:53:11.555Z,6.55
2019-04-20T01:55:43.953Z,6.80
2019-04-20T01:58:17.675Z,9.23
2019-04-20T02:00:34.424Z,8.53
2019-04-20T02:03:17.060Z,8.68
2019-04-20T02:05:53.090Z,8.00
2019-04-20T02:08:18.320Z,7.22
2019-04-20T02:10:50.239Z,6.22
2019-04-20T02:13:11.494Z,6.37
2019-04-20T02:15:44.467Z,6.03
2019-04-20T02:18:20.162Z,8.50
2019-04-20T02:20:54.530Z,6.85
2019-04-20T02:23:19.944Z,7.58
2019-04-20T02:25:35.695Z,5.70
2019-04-20T02:28:22.711Z,6.85
2019-04-20T02:31:04.711Z,5.47
2019-04-20T02:33:47.515Z,5.45
2019-04-20T02:36:47.947Z,6.00
2019-04-20T02:41:41.962Z,8.90
2019-04-20T02:44:15.982Z,6.45
2019-04-20T02:46:49.276Z,7.40
2019-04-20T02:49:19.819Z,7.10
2019-04-20T02:51:42.113Z,6.78
2019-04-20T02:54:21.505Z,6.83
2019-04-20T02:56:45.351Z,5.62
2019-04-20T02:59:25.001Z,6.67
2019-04-20T03:01:26.698Z,6.12
2019-04-20T03:03:43.452Z,7.58
2019-04-20T03:06:17.284Z,7.37
2019-04-20T03:08:56.354Z,7.25
2019-04-20T03:11:36.533Z,6.65
2019-04-20T03:13:48.967Z,6.65
2019-04-20T03:16:20.870Z,6.78
2019-04-20T03:18:44.624Z,6.12
2019-04-20T03:21:27.263Z,5.55
2019-04-20T03:23:52.644Z,7.72
2019-04-20T03:26:21.367Z,7.05
2019-04-20T03:29:05.613Z,7.58
2019-04-20T03:34:55.469Z,7.40
2019-04-20T03:37:01.357Z,7.25
2019-04-20T03:39:23.323Z,9.20
2019-04-20T03:41:41.995Z,7.15
2019-04-20T03:44:14.208Z,5.80
2019-04-20T03:46:45.517Z,5.28
2019-04-20T03:49:35.257Z,4.75
2019-04-20T03:51:57.357Z,6.30
2019-04-20T03:54:24.764Z,6.80
2019-04-20T03:57:18.435Z,6.30
2019-04-20T04:00:00.700Z,7.45
2019-04-20T04:02:49.406Z,6.42
2019-04-20T04:05:22.216Z,7.28
2019-04-20T04:07:38.694Z,5.95
2019-04-20T04:10:15.990Z,9.48
2019-04-20T04:13:01.212Z,10.05
2019-04-20T04:15:29.353Z,7.00
2019-04-20T04:18:04.096Z,8.15
2019-04-20T04:20:33.275Z,9.68
2019-04-20T04:23:10.298Z,7.67
2019-04-20T04:25:34.540Z,10.55
2019-04-20T04:28:09.312Z,9.18
2019-04-20T04:30:35.418Z,10.08
2019-04-20T04:33:32.451Z,9.08
2019-04-20T04:35:33.594Z,8.25
2019-04-20T04:38:09.478Z,8.23
2019-04-20T04:40:49.835Z,7.28
2019-04-20T04:43:10.391Z,4.75
2019-04-20T04:45:23.622Z,7.22
2019-04-20T04:47:47.606Z,6.05
2019-04-20T04:50:19.692Z,8.40
2019-04-20T04:52:54.553Z,10.28
2019-04-20T04:55:27.590Z,8.58
2019-04-20T04:57:43.265Z,8.10
2019-04-20T05:00:17.867Z,8.20
2019-04-20T05:02:45.293Z,8.18
2019-04-20T05:05:47.303Z,9.05
2019-04-20T05:08:02.766Z,8.43
2019-04-20T05:10:20.731Z,7.90
2019-04-20T05:12:48.190Z,6.55
2019-04-20T05:15:31.038Z,5.17
2019-04-20T05:18:08.185Z,7.80
2019-04-20T05:20:37.237Z,8.28
2019-04-20T05:23:12.995Z,6.17
2019-04-20T05:26:01.764Z,9.05
2019-04-20T05:28:24.291Z,7.28
2019-04-20T05:30:51.977Z,7.87
2019-04-20T05:33:27.057Z,8.23
2019-04-20T05:36:07.052Z,8.48
2019-04-20T05:38:37.113Z,8.00
2019-04-20T05:41:04.631Z,9.03
2019-04-20T05:43:36.284Z,7.92
2019-04-20T05:46:15.871Z,8.28
2019-04-20T05:48:45.885Z,9.43
2019-04-20T05:51:12.260Z,9.63
2019-04-20T05:53:40.939Z,8.43
2019-04-20T05:56:02.898Z,7.05
2019-04-20T05:58:33.028Z,9.10
2019-04-20T06:01:08.876Z,9.20
2019-04-20T06:03:32.414Z,9.40
2019-04-20T06:06:08.378Z,5.90
2019-04-20T06:11:04.478Z,8.98
2019-04-20T06:13:40.707Z,10.20
2019-04-20T06:16:18.143Z,9.08
2019-04-20T06:18:58.208Z,9.28
2019-04-20T06:21:35.493Z,8.13
2019-04-20T06:23:56.386Z,8.98
2019-04-20T06:26:49.496Z,8.90
2019-04-20T06:29:04.260Z,8.65
2019-04-20T06:31:44.230Z,8.10
2019-04-20T06:36:56.048Z,8.88
2019-04-20T06:39:19.944Z,8.83
2019-04-20T06:44:24.759Z,8.30
2019-04-20T06:46:53.740Z,7.05
2019-04-20T06:49:16.783Z,8.40
2019-04-20T06:51:51.974Z,9.13
2019-04-20T06:54:09.264Z,8.75
2019-04-20T06:56:48.431Z,8.03
2019-04-20T06:59:21.409Z,8.23
2019-04-20T07:01:56.582Z,8.55
2019-04-20T07:04:36.547Z,9.08
2019-04-20T07:06:50.725Z,7.75
2019-04-20T07:09:16.979Z,8.95
2019-04-20T07:11:42.671Z,9.73
2019-04-20T07:13:57.722Z,9.33
2019-04-20T07:16:40.719Z,9.10
2019-04-20T07:19:19.037Z,9.28
2019-04-20T07:22:11.958Z,9.10
2019-04-20T07:24:38.413Z,8.57
2019-04-20T07:27:00.728Z,7.47
2019-04-20T07:29:37.016Z,8.78
2019-04-20T07:31:55.281Z,8.98
2019-04-20T07:34:28.648Z,8.00
2019-04-20T07:37:09.850Z,9.18
2019-04-20T07:39:27.947Z,8.65
2019-04-20T07:42:01.815Z,8.20
2019-04-20T07:44:35.938Z,8.18
2019-04-20T07:47:02.851Z,9.20
2019-04-20T07:49:18.170Z,8.73
2019-04-20T07:51:35.564Z,8.30
2019-04-20T07:54:23.008Z,8.83
2019-04-20T07:56:47.735Z,8.73
2019-04-20T07:59:09.583Z,9.78
2019-04-20T08:02:00.822Z,10.58
2019-04-20T08:04:24.472Z,9.63
2019-04-20T08:06:53.039Z,9.55
2019-04-20T08:09:24.374Z,7.08
2019-04-20T08:12:13.430Z,7.67
2019-04-20T08:14:39.865Z,9.20
2019-04-20T08:17:14.338Z,8.75
2019-04-20T08:19:31.544Z,8.85
2019-04-20T08:21:58.829Z,9.65
2019-04-20T08:24:21.368Z,8.50
2019-04-20T08:26:44.887Z,9.40
2019-04-20T08:29:25.398Z,9.33
2019-04-20T08:32:10.358Z,8.30
2019-04-20T08:37:07.125Z,8.70
2019-04-20T08:39:46.690Z,8.10
2019-04-20T08:42:06.104Z,8.25
2019-04-20T08:44:56.638Z,7.80
2019-04-20T08:47:14.444Z,9.65
2019-04-20T08:49:35.249Z,8.83
2019-04-20T08:52:21.513Z,8.55
2019-04-20T08:54:26.707Z,9.58
2019-04-20T08:56:46.107Z,11.30
2019-04-20T08:59:07.419Z,11.40
2019-04-20T09:01:36.132Z,10.95
2019-04-20T09:04:09.742Z,10.50
2019-04-20T09:06:48.308Z,10.10
2019-04-20T09:09:33.183Z,12.63
2019-04-20T09:11:50.544Z,12.80
2019-04-20T09:14:18.700Z,9.48
2019-04-20T09:16:57.044Z,9.53
2019-04-20T09:19:30.848Z,8.88
2019-04-20T09:21:57.206Z,8.70
2019-04-20T09:24:43.247Z,8.60
2019-04-20T09:27:07.686Z,10.50
2019-04-20T09:29:35.792Z,9.50
2019-04-20T09:32:06.764Z,8.85
2019-04-20T09:34:45.273Z,11.95
2019-04-20T09:37:12.838Z,10.28
2019-04-20T09:39:37.852Z,9.25
2019-04-20T09:42:07.797Z,9.05
2019-04-20T09:44:37.548Z,8.53
2019-04-20T09:47:10.038Z,7.58
2019-04-20T09:49:48.818Z,8.08
2019-04-20T09:52:21.186Z,7.60
2019-04-20T09:54:53.045Z,7.00
2019-04-20T09:57:25.464Z,7.33
2019-04-20T09:59:53.677Z,8.05
2019-04-20T10:02:10.283Z,7.00
2019-04-20T10:04:33.385Z,7.33
2019-04-20T10:07:07.946Z,8.85
2019-04-20T10:09:36.995Z,9.20
2019-04-20T10:11:59.697Z,8.28
2019-04-20T10:14:26.952Z,10.32
2019-04-20T10:16:57.860Z,9.35
2019-04-20T10:19:31.909Z,10.43
2019-04-20T10:21:55.029Z,9.28
2019-04-20T10:24:24.299Z,9.10
2019-04-20T10:26:52.489Z,8.68
2019-04-20T10:29:19.764Z,8.73
2019-04-20T10:31:50.525Z,8.05
2019-04-20T10:34:17.646Z,8.45
2019-04-20T10:36:47.892Z,9.63
2019-04-20T10:39:16.472Z,11.22
2019-04-20T10:41:50.524Z,9.60
2019-04-20T10:44:12.416Z,8.90
2019-04-20T10:46:40.467Z,9.50
2019-04-20T10:49:09.522Z,9.40
2019-04-20T10:51:37.836Z,8.63
2019-04-20T10:54:06.614Z,8.38
2019-04-20T10:56:33.849Z,9.35
2019-04-20T10:59:01.417Z,9.38
2019-04-20T11:01:29.648Z,9.20
2019-04-20T11:03:56.693Z,8.83
2019-04-20T11:06:24.697Z,8.70
2019-04-20T11:08:52.864Z,8.78
2019-04-20T11:11:25.275Z,8.40
2019-04-20T11:13:48.899Z,10.70
2019-04-20T11:16:16.009Z,9.48
2019-04-20T11:18:43.247Z,10.28
2019-04-20T11:21:11.398Z,9.43
2019-04-20T11:23:38.645Z,8.83
2019-04-20T11:26:06.326Z,9.33
2019-04-20T11:28:34.387Z,10.13
2019-04-20T11:31:01.905Z,9.55
2019-04-20T11:33:30.000Z,9.10
2019-04-20T11:35:57.221Z,8.58
2019-04-20T11:38:24.230Z,9.45
2019-04-20T11:41:04.067Z,9.83
2019-04-20T11:43:20.141Z,8.95
2019-04-20T11:45:47.145Z,8.28
2019-04-20T11:48:23.341Z,8.95
2019-04-20T11:50:51.637Z,10.93
2019-04-20T11:53:21.546Z,10.32
2019-04-20T11:55:48.810Z,10.53
2019-04-20T11:58:16.348Z,9.68
2019-04-20T12:00:57.645Z,10.00
2019-04-20T12:03:24.792Z,10.23
2019-04-20T12:05:52.987Z,10.50
2019-04-20T12:08:15.084Z,10.23
2019-04-20T12:10:43.598Z,9.58
2019-04-20T12:13:14.407Z,9.60
2019-04-20T12:15:39.850Z,9.98
2019-04-20T12:18:07.596Z,9.08
2019-04-20T12:20:34.764Z,8.85
2019-04-20T12:23:02.186Z,9.85
2019-04-20T12:25:34.197Z,10.32
2019-04-20T12:28:01.877Z,9.90
2019-04-20T12:30:29.891Z,10.38
2019-04-20T12:33:00.572Z,10.80
2019-04-20T12:35:26.504Z,11.57
2019-04-20T12:37:54.609Z,10.15
2019-04-20T12:40:22.120Z,10.78
2019-04-20T12:42:50.844Z,10.60
2019-04-20T12:45:20.015Z,12.70
2019-04-20T12:47:49.706Z,11.30
2019-04-20T12:50:17.597Z,11.85
2019-04-20T12:52:44.698Z,11.75
2019-04-20T12:55:12.455Z,12.20
2019-04-20T12:57:42.802Z,12.47
2019-04-20T13:00:11.937Z,12.45
2019-04-20T13:02:39.433Z,13.25
2019-04-20T13:05:07.606Z,13.05
2019-04-20T13:07:39.652Z,13.08
2019-04-20T13:10:05.720Z,13.80
2019-04-20T13:12:52.281Z,13.03
2019-04-20T13:17:54.307Z,13.15
2019-04-20T13:20:23.896Z,13.88
2019-04-20T13:22:50.990Z,13.90
2019-04-20T13:25:19.033Z,14.10
2019-04-20T13:27:47.327Z,13.65
2019-04-20T13:30:15.084Z,13.53
2019-04-20T13:32:42.122Z,14.55
2019-04-20T13:35:10.170Z,15.50
2019-04-20T13:37:39.707Z,14.95
2019-04-20T13:40:07.059Z,14.73
2019-04-20T13:42:35.202Z,14.45
2019-04-20T13:45:06.642Z,14.33
2019-04-20T13:47:34.920Z,13.40
2019-04-20T13:50:05.185Z,13.88
2019-04-20T13:52:35.029Z,14.10
2019-04-20T13:55:03.733Z,13.05
2019-04-20T13:57:42.029Z,13.85
2019-04-20T14:00:18.411Z,13.70
2019-04-20T14:03:00.675Z,13.78
2019-04-20T14:05:33.075Z,13.53
2019-04-20T14:08:03.202Z,14.80
2019-04-20T14:10:31.259Z,15.25
2019-04-20T14:13:06.123Z,16.10
2019-04-20T14:15:27.241Z,15.53
2019-04-20T14:17:55.228Z,17.30
2019-04-20T14:20:23.819Z,16.70
2019-04-20T14:22:52.478Z,17.65
2019-04-20T14:25:20.842Z,17.65
2019-04-20T14:27:49.076Z,18.70
2019-04-20T14:30:17.163Z,18.12
2019-04-20T14:32:45.092Z,18.20
2019-04-20T14:35:12.234Z,18.75
2019-04-20T14:37:39.462Z,18.98
2019-04-20T14:40:08.168Z,17.73
2019-04-20T14:42:42.033Z,19.55
2019-04-20T14:45:06.813Z,19.15
2019-04-20T14:47:33.959Z,17.65
2019-04-20T14:50:03.231Z,17.25
2019-04-20T14:52:31.569Z,17.95
2019-04-20T14:54:59.538Z,17.20
2019-04-20T14:57:27.637Z,16.45
2019-04-20T14:59:56.611Z,17.65
2019-04-20T15:02:25.799Z,17.90
2019-04-20T15:04:53.269Z,17.65
2019-04-20T15:07:20.578Z,18.90
2019-04-20T15:09:48.822Z,18.85
2019-04-20T15:12:38.853Z,18.15
2019-04-20T15:14:57.014Z,19.12
2019-04-20T15:17:29.804Z,18.85
2019-04-20T15:20:15.295Z,19.25
2019-04-20T15:22:45.420Z,19.75
2019-04-20T15:25:15.752Z,18.70
2019-04-20T15:27:46.097Z,20.30
2019-04-20T15:30:14.137Z,18.85
2019-04-20T15:32:41.330Z,19.10
2019-04-20T15:35:09.453Z,17.60
2019-04-20T15:37:37.300Z,18.50
2019-04-20T15:40:06.909Z,17.60
2019-04-20T15:42:34.981Z,16.42
2019-04-20T15:45:05.427Z,16.32
2019-04-20T15:47:32.452Z,13.98
2019-04-20T15:49:59.928Z,14.73
2019-04-20T15:52:33.641Z,17.17
2019-04-20T15:54:55.957Z,18.23
2019-04-20T15:57:25.700Z,20.00
2019-04-20T15:59:52.694Z,18.37
2019-04-20T16:02:23.030Z,17.92
2019-04-20T16:05:14.475Z,19.75
2019-04-20T16:07:48.598Z,17.35
2019-04-20T16:10:10.743Z,20.05
2019-04-20T16:12:38.591Z,16.25
2019-04-20T16:15:07.503Z,17.52
2019-04-20T16:17:39.057Z,19.02
2019-04-20T16:20:11.535Z,18.27
2019-04-20T16:22:34.401Z,17.98
2019-04-20T16:25:21.476Z,20.00
2019-04-20T16:27:49.778Z,19.82
2019-04-20T16:30:17.962Z,19.52
2019-04-20T16:32:45.061Z,18.27
2019-04-20T16:35:12.162Z,17.30
2019-04-20T16:37:40.301Z,16.12
2019-04-20T16:40:09.854Z,20.20
2019-04-20T16:42:39.267Z,19.42
2019-04-20T16:45:09.523Z,18.23
2019-04-20T16:47:37.117Z,19.65
2019-04-20T16:50:06.874Z,20.95
2019-04-20T16:52:34.804Z,21.70
2019-04-20T16:55:02.250Z,21.48
2019-04-20T16:57:29.976Z,19.50
2019-04-20T16:59:59.466Z,19.07
2019-04-20T17:02:26.659Z,19.02
2019-04-20T17:04:55.421Z,19.02
2019-04-20T17:07:24.968Z,17.15
2019-04-20T17:09:53.740Z,16.87
2019-04-20T17:12:21.694Z,15.00
2019-04-20T17:14:49.480Z,15.50
2019-04-20T17:17:17.763Z,15.95
2019-04-20T17:19:46.085Z,16.15
2019-04-20T17:22:13.841Z,17.35
2019-04-20T17:24:43.127Z,16.60
2019-04-20T17:27:15.288Z,17.15
2019-04-20T17:30:01.088Z,14.33
2019-04-20T17:32:31.600Z,17.35
2019-04-20T17:35:14.902Z,16.97
2019-04-20T17:37:29.884Z,16.17
2019-04-20T17:40:19.045Z,18.77
2019-04-20T17:42:41.244Z,18.50
2019-04-20T17:45:03.838Z,19.92
2019-04-20T17:47:43.205Z,20.23
2019-04-20T17:50:15.060Z,17.00
2019-04-20T17:52:46.106Z,19.82
2019-04-20T17:55:16.191Z,18.90
2019-04-20T17:57:35.238Z,20.10
2019-04-20T18:00:13.441Z,18.90
2019-04-20T18:02:59.233Z,19.35
2019-04-20T18:05:39.398Z,17.02
2019-04-20T18:08:16.583Z,17.00
2019-04-20T18:10:35.465Z,16.27
2019-04-20T18:12:53.449Z,15.38
2019-04-20T18:15:36.315Z,18.67
2019-04-20T18:18:18.991Z,15.53
2019-04-20T18:20:34.754Z,16.85
2019-04-20T18:23:02.500Z,17.00
2019-04-20T18:25:56.208Z,15.75
2019-04-20T18:28:13.745Z,15.75
2019-04-20T18:30:45.563Z,15.80
2019-04-20T18:33:07.368Z,17.12
2019-04-20T18:35:40.373Z,14.07
2019-04-20T18:38:09.363Z,15.58
2019-04-20T18:40:41.794Z,15.55
2019-04-20T18:43:08.206Z,16.45
2019-04-20T18:45:54.600Z,14.43
2019-04-20T18:48:20.534Z,13.00
2019-04-20T18:50:36.488Z,16.52
2019-04-20T18:52:58.330Z,16.65
2019-04-20T18:55:34.468Z,15.25
2019-04-20T18:57:55.529Z,14.40
2019-04-20T19:00:28.780Z,18.70
2019-04-20T19:02:56.087Z,17.75
2019-04-20T19:05:22.039Z,15.25
2019-04-20T19:07:57.854Z,16.73
2019-04-20T19:10:25.486Z,16.25
2019-04-20T19:12:58.881Z,14.00
2019-04-20T19:15:46.815Z,15.70
2019-04-20T19:18:23.829Z,14.83
2019-04-20T19:20:41.268Z,18.42
2019-04-20T19:23:10.329Z,15.18
2019-04-20T19:25:40.945Z,18.42
2019-04-20T19:28:08.778Z,19.45
2019-04-20T19:30:45.999Z,19.20
2019-04-20T19:33:19.123Z,17.85
2019-04-20T19:35:46.835Z,15.38
2019-04-20T19:38:10.287Z,14.93
2019-04-20T19:40:45.407Z,14.85
2019-04-20T19:43:14.778Z,18.82
2019-04-20T19:45:56.689Z,18.92
2019-04-20T19:48:12.320Z,16.77
2019-04-20T19:50:48.554Z,20.12
2019-04-20T19:53:21.163Z,17.57
2019-04-20T19:55:40.734Z,20.02
2019-04-20T19:58:07.307Z,18.17
2019-04-20T20:00:48.459Z,18.75
2019-04-20T20:03:13.575Z,18.00
2019-04-20T20:05:45.200Z,19.07
2019-04-20T20:08:17.115Z,17.20
2019-04-20T20:10:42.595Z,16.12
2019-04-20T20:13:09.917Z,18.95
2019-04-20T20:15:39.573Z,17.77
2019-04-20T20:18:27.856Z,18.23
2019-04-20T20:20:52.933Z,16.27
2019-04-20T20:23:07.805Z,16.60
2019-04-20T20:25:42.379Z,16.65
2019-04-20T20:28:14.585Z,20.88
2019-04-20T20:30:49.104Z,18.00
2019-04-20T20:33:22.154Z,16.97
2019-04-20T20:35:45.863Z,20.75
2019-04-20T20:38:14.782Z,20.50
2019-04-20T20:40:39.674Z,18.98
2019-04-20T20:43:14.759Z,12.78
2019-04-20T20:45:42.373Z,19.17
2019-04-20T20:48:24.467Z,14.40
2019-04-20T20:51:02.160Z,19.85
2019-04-20T20:53:16.703Z,14.70
2019-04-20T20:55:43.998Z,15.20
2019-04-20T20:58:17.260Z,14.70
2019-04-20T21:00:53.319Z,15.90
2019-04-20T21:03:08.981Z,16.65
2019-04-20T21:05:35.680Z,15.20
2019-04-20T21:08:03.783Z,13.40
2019-04-20T21:10:35.639Z,19.37
2019-04-20T21:13:04.764Z,16.50
2019-04-20T21:15:30.271Z,18.65
2019-04-20T21:18:20.616Z,13.35
2019-04-20T21:20:48.103Z,17.98
2019-04-20T21:23:13.545Z,19.50
2019-04-20T21:25:34.533Z,18.67
2019-04-20T21:27:57.552Z,17.10
2019-04-20T21:30:32.985Z,12.55
2019-04-20T21:32:57.231Z,18.57
2019-04-20T21:35:23.773Z,19.52
2019-04-20T21:37:59.068Z,23.45
2019-04-20T21:40:30.134Z,21.02
2019-04-20T21:42:58.791Z,17.65
2019-04-20T21:45:27.385Z,21.93
2019-04-20T21:47:52.929Z,23.27
2019-04-20T21:50:35.112Z,22.22
2019-04-20T21:52:53.364Z,14.60
2019-04-20T21:55:18.528Z,18.23
2019-04-20T21:57:51.549Z,21.77
2019-04-20T22:00:24.975Z,20.15
2019-04-20T22:02:56.558Z,16.75
2019-04-20T22:05:17.341Z,20.77
2019-04-20T22:07:44.365Z,14.15
2019-04-20T22:10:18.249Z,18.25
2019-04-20T22:12:48.625Z,20.20
2019-04-20T22:15:19.886Z,21.35
2019-04-20T22:17:41.559Z,19.30
2019-04-20T22:20:20.221Z,23.15
2019-04-20T22:22:57.257Z,18.73
2019-04-20T22:25:29.563Z,21.50
2019-04-20T22:27:38.940Z,19.07
2019-04-20T22:30:08.232Z,22.62
2019-04-20T22:32:42.526Z,20.00
2019-04-20T22:35:11.386Z,19.65
2019-04-20T22:37:46.004Z,21.62
2019-04-20T22:40:19.635Z,20.95
2019-04-20T22:42:46.465Z,17.95
2019-04-20T22:45:14.200Z,23.00
2019-04-20T22:47:40.820Z,22.35
2019-04-20T22:50:32.006Z,18.35
2019-04-20T22:52:44.457Z,23.12
2019-04-20T22:55:28.278Z,20.90
2019-04-20T22:57:52.404Z,20.92
2019-04-20T23:00:11.083Z,21.75
2019-04-20T23:02:36.639Z,19.32
2019-04-20T23:05:06.729Z,21.80
2019-04-20T23:07:34.741Z,22.20
2019-04-20T23:10:03.402Z,21.85
2019-04-20T23:12:32.120Z,17.57
2019-04-20T23:15:00.471Z,21.57
2019-04-20T23:17:35.985Z,21.37
2019-04-20T23:20:00.890Z,19.00
2019-04-20T23:22:33.817Z,17.52
2019-04-20T23:24:55.184Z,18.77
2019-04-20T23:27:26.364Z,21.23
2019-04-20T23:29:51.278Z,20.97
2019-04-20T23:32:19.881Z,16.25
2019-04-20T23:34:50.008Z,21.73
2019-04-20T23:37:24.567Z,17.50
2019-04-20T23:39:48.942Z,21.25
2019-04-20T23:42:17.708Z,16.27
2019-04-20T23:44:56.666Z,15.08
2019-04-20T23:47:25.465Z,16.02
2019-04-20T23:50:12.096Z,15.60
2019-04-20T23:52:43.092Z,17.12
2019-04-20T23:54:59.073Z,18.50
2019-04-20T23:57:21.862Z,14.83
2019-04-20T23:59:52.014Z,18.25
